Spar Draco — LAFO6 — position and weather

sailwx.info

Track history (hours):
 
Tides and Currents Weather Stations Pressure Air Temp Water Temp Dewpoint Dewpoint Depression Visibility Wind Speed Wind Dir Waves Ship Positions

Spar Draco

Last reported at 2015-Aug-05 05:34 UTC. Time now 2015-Aug-05 06:24 UTC.
Position N 53°07' E 008°41'.

Length 190 m; draft 10.4 m.

Type: Cargo ship. MMSI: 257799000.

Date/timePositionNaut miles runAvg speedWind from/ knotsBaromVisibWave heightAir tempDewpointWater temp
2015-Aug-05 05:34N 53°07' E 008°41'0 0.0
2015-Aug-05 04:34N 53°07' E 008°41'0 0.0
2015-Aug-05 03:34N 53°07' E 008°41'0 0.0
2015-Aug-05 02:34N 53°07' E 008°41'0 0.0
2015-Aug-05 01:34N 53°07' E 008°41'0 0.0
2015-Aug-05 00:34N 53°07' E 008°41'0 0.0
2015-Aug-04 23:34N 53°07' E 008°41'0 0.0
2015-Aug-04 22:34N 53°07' E 008°41'0 0.0
2015-Aug-04 21:34N 53°07' E 008°41'0 0.0
2015-Aug-04 20:34N 53°07' E 008°41'0 0.0
2015-Aug-04 19:34N 53°07' E 008°41'0 0.0
2015-Aug-04 18:34N 53°07' E 008°41'0 0.0
2015-Aug-04 17:34N 53°07' E 008°41'0 0.0
2015-Aug-04 16:34N 53°07' E 008°41'0 0.0
2015-Aug-04 15:34N 53°07' E 008°41'0 0.0
2015-Aug-04 14:34N 53°07' E 008°41'0 0.0
2015-Aug-04 13:34N 53°07' E 008°41'0 0.0
2015-Aug-04 12:34N 53°07' E 008°41'0 0.0
2015-Aug-04 11:34N 53°07' E 008°41'0 0.0
2015-Aug-04 10:34N 53°07' E 008°41'0 0.0
2015-Aug-04 09:34N 53°07' E 008°41'0 0.0
2015-Aug-04 08:34N 53°07' E 008°41'0 0.0
2015-Aug-04 07:34N 53°07' E 008°41'0 0.0
2015-Aug-04 06:34N 53°07' E 008°41'0 0.0
2015-Aug-04 05:34N 53°07' E 008°41'0 0.0
2015-Aug-04 04:34N 53°07' E 008°41'4 4.5
2015-Aug-04 03:34N 53°10' E 008°36'8 8.4
2015-Aug-04 02:33N 53°18' E 008°29'1110.6
2015-Aug-04 01:33N 53°28' E 008°30'7 7.0
2015-Aug-04 00:34N 53°35' E 008°31'8 7.9
2015-Aug-03 23:34N 53°41' E 008°22'1211.8
2015-Aug-03 22:34N 53°49' E 008°07'1111.4
2015-Aug-03 21:34N 53°52' E 007°49'10 9.9
2015-Aug-03 20:33N 53°59' E 007°36'7 7.3
2015-Aug-03 19:34N 54°04' E 007°28'0 0.0
2015-Aug-03 18:34N 54°04' E 007°28'0 0.0
2015-Aug-03 17:34N 54°04' E 007°28'0 0.0
2015-Aug-03 16:33N 54°04' E 007°28'0 0.0
2015-Aug-03 15:33N 54°04' E 007°28'0 0.0
2015-Aug-03 14:33N 54°04' E 007°28'0 0.0
2015-Aug-03 13:33N 54°04' E 007°28'0 0.2
2015-Aug-03 12:33N 54°04' E 007°28'0 0.0
2015-Aug-03 11:33N 54°04' E 007°28'0 0.0
2015-Aug-03 10:33N 54°04' E 007°28'0 0.0
2015-Aug-03 09:33N 54°04' E 007°28'0 0.2
2015-Aug-03 08:33N 54°04' E 007°28'0 0.1
2015-Aug-03 07:33N 54°04' E 007°28'0 0.0
2015-Aug-03 06:33N 54°04' E 007°28'0 0.0
2015-Aug-03 05:34N 54°04' E 007°28'0 0.0
2015-Aug-03 04:33N 54°04' E 007°28'0 0.0
2015-Aug-03 03:33N 54°04' E 007°28'0 0.0
2015-Aug-03 02:33N 54°04' E 007°28'0 0.0
2015-Aug-03 01:33N 54°04' E 007°28'0 0.2
2015-Aug-03 00:34N 54°04' E 007°28'0 0.1
2015-Aug-02 23:34N 54°04' E 007°28'0 0.0
2015-Aug-02 22:34N 54°04' E 007°28'0 0.0
2015-Aug-02 21:33N 54°04' E 007°28'0 0.1
2015-Aug-02 20:33N 54°04' E 007°28'0 0.2
2015-Aug-02 19:33N 54°04' E 007°28'0 0.0
2015-Aug-02 18:33N 54°04' E 007°28'0 0.0
2015-Aug-02 17:34N 54°04' E 007°28'0 0.0
2015-Aug-02 16:34N 54°04' E 007°28'0 0.0
2015-Aug-02 15:34N 54°04' E 007°28'0 0.0
2015-Aug-02 14:34N 54°04' E 007°28'0 0.2
2015-Aug-02 13:33N 54°04' E 007°28'0 0.1
2015-Aug-02 12:33N 54°04' E 007°28'0 0.0
2015-Aug-02 11:33N 54°04' E 007°28'0 0.0
2015-Aug-02 10:34N 54°04' E 007°28'0 0.0
2015-Aug-02 09:33N 54°04' E 007°28'0 0.0
2015-Aug-02 08:33N 54°04' E 007°28'0 0.0
2015-Aug-02 07:34N 54°04' E 007°28'0 0.2
2015-Aug-02 06:33N 54°04' E 007°28'0 0.0
2015-Aug-02 05:33N 54°04' E 007°28'0 0.0
2015-Aug-02 04:33N 54°04' E 007°28'0 0.0
2015-Aug-02 03:34N 54°04' E 007°28'0 0.0
2015-Aug-02 02:33N 54°04' E 007°28'0 0.0
2015-Aug-02 01:33N 54°04' E 007°28'0 0.1
2015-Aug-02 00:33N 54°04' E 007°28'0 0.1
2015-Aug-01 23:34N 54°04' E 007°28'0 0.0
2015-Aug-01 22:34N 54°04' E 007°28'0 0.0
2015-Aug-01 21:34N 54°04' E 007°28'0 0.0
2015-Aug-01 20:34N 54°04' E 007°28'0 0.1
2015-Aug-01 19:34N 54°04' E 007°28'0 0.2
2015-Aug-01 18:33N 54°04' E 007°28'0 0.0
2015-Aug-01 17:34N 54°04' E 007°28'0 0.0
2015-Aug-01 16:33N 54°04' E 007°28'0 0.0
2015-Aug-01 15:33N 54°04' E 007°28'0 0.0
2015-Aug-01 14:33N 54°04' E 007°28'0 0.0
2015-Aug-01 13:34N 54°04' E 007°28'0 0.0
2015-Aug-01 12:33N 54°04' E 007°28'0 0.2
2015-Aug-01 11:33N 54°04' E 007°28'0 0.1
2015-Aug-01 10:33N 54°04' E 007°28'0 0.0
2015-Aug-01 09:34N 54°04' E 007°28'0 0.0
2015-Aug-01 08:33N 54°04' E 007°28'0 0.0
2015-Aug-01 07:34N 54°04' E 007°28'0 0.2
2015-Aug-01 06:34N 54°04' E 007°28'0 0.1
2015-Aug-01 05:31N 54°04' E 007°28'0 0.0
2015-Aug-01 04:34N 54°04' E 007°28'0 0.0
2015-Aug-01 03:33N 54°04' E 007°28'0 0.0
2015-Aug-01 02:34N 54°04' E 007°28'0 0.0
2015-Aug-01 01:33N 54°04' E 007°28'0 0.1
2015-Aug-01 00:33N 54°04' E 007°28'0 0.1
2015-Jul-31 23:34N 54°04' E 007°28'0 0.0
2015-Jul-31 22:34N 54°04' E 007°28'0 0.0
2015-Jul-31 21:34N 54°04' E 007°28'0 0.0
2015-Jul-31 20:34N 54°04' E 007°28'0 0.0
2015-Jul-31 19:33N 54°04' E 007°28'0 0.0
2015-Jul-31 18:33N 54°04' E 007°28'0 0.2
2015-Jul-31 17:33N 54°04' E 007°28'0 0.1
2015-Jul-31 16:34N 54°04' E 007°28'0 0.0
2015-Jul-31 15:33N 54°04' E 007°28'0 0.0
2015-Jul-31 14:34N 54°04' E 007°28'0 0.1
2015-Jul-31 13:34N 54°04' E 007°28'0 0.2
2015-Jul-31 12:34N 54°04' E 007°28'0 0.0
2015-Jul-31 11:34N 54°04' E 007°28'0 0.0
2015-Jul-31 10:33N 54°04' E 007°28'0 0.0
2015-Jul-31 09:33N 54°04' E 007°28'0 0.0
2015-Jul-31 08:33N 54°04' E 007°28'0 0.0
2015-Jul-31 07:33N 54°04' E 007°28'0 0.0
2015-Jul-31 06:33N 54°04' E 007°28'0 0.0
2015-Jul-31 05:33N 54°04' E 007°28'0 0.0
2015-Jul-31 04:33N 54°04' E 007°28'0 0.1
2015-Jul-31 03:34N 54°04' E 007°28'0 0.0
2015-Jul-31 02:33N 54°04' E 007°28'0 0.0
2015-Jul-31 01:34N 54°04' E 007°28'0 0.0
2015-Jul-31 00:34N 54°04' E 007°28'0 0.0
2015-Jul-30 23:34N 54°04' E 007°28'0 0.0
2015-Jul-30 22:34N 54°04' E 007°28'0 0.0
2015-Jul-30 21:33N 54°04' E 007°28'0 0.0
2015-Jul-30 20:34N 54°04' E 007°28'0 0.0
2015-Jul-30 19:33N 54°04' E 007°28'0 0.0
2015-Jul-30 18:33N 54°04' E 007°28'0 0.0
2015-Jul-30 17:33N 54°04' E 007°28'0 0.0
2015-Jul-30 16:33N 54°04' E 007°28'0 0.0
2015-Jul-30 15:34N 54°04' E 007°28'0 0.0
2015-Jul-30 14:34N 54°04' E 007°28'0 0.0
2015-Jul-30 13:33N 54°04' E 007°28'0 0.3
2015-Jul-30 12:34N 54°04' E 007°28'1 0.7
2015-Jul-30 11:33N 54°04' E 007°29'1 0.6
2015-Jul-30 10:33N 54°03' E 007°29'0 0.3
2015-Jul-30 09:34N 54°04' E 007°29'0 0.1
2015-Jul-30 08:33N 54°04' E 007°29'0 0.3
2015-Jul-30 07:33N 54°03' E 007°30'0 0.0
2015-Jul-30 06:33N 54°04' E 007°30'0 0.0
2015-Jul-30 05:33N 54°03' E 007°30'0 0.0
2015-Jul-30 04:33N 54°03' E 007°30'0 0.0
2015-Jul-30 03:34N 54°03' E 007°30'0 0.0
2015-Jul-30 02:34N 54°04' E 007°30'0 0.0
2015-Jul-30 01:34N 54°04' E 007°30'0 0.0
2015-Jul-30 00:34N 54°04' E 007°30'0 0.0
2015-Jul-29 23:33N 54°04' E 007°30'0 0.0
2015-Jul-29 22:34N 54°04' E 007°30'0 0.0
2015-Jul-29 21:34N 54°04' E 007°30'0 0.0
2015-Jul-29 20:33N 54°04' E 007°30'0 0.0
2015-Jul-29 19:33N 54°04' E 007°30'0 0.0
2015-Jul-29 18:34N 54°04' E 007°30'0 0.0
2015-Jul-29 17:33N 54°04' E 007°30'0 0.0
2015-Jul-29 16:33N 54°04' E 007°30'0 0.0
2015-Jul-29 15:34N 54°04' E 007°30'0 0.0
2015-Jul-29 14:34N 54°04' E 007°30'0 0.0
2015-Jul-29 13:34N 54°04' E 007°30'0 0.0
2015-Jul-29 12:33N 54°04' E 007°30'0 0.0
2015-Jul-29 11:33N 54°04' E 007°30'0 0.0
2015-Jul-29 10:33N 54°04' E 007°30'0 0.0
2015-Jul-29 09:34N 54°04' E 007°30'0 0.0
2015-Jul-29 08:33N 54°04' E 007°30'0 0.0
2015-Jul-29 07:33N 54°04' E 007°30'0 0.0
2015-Jul-29 06:34N 54°04' E 007°30'0 0.0
2015-Jul-29 05:34N 54°04' E 007°30'0 0.0
2015-Jul-29 04:33N 54°04' E 007°30'0 0.1
2015-Jul-29 03:34N 54°04' E 007°29'5 5.4
2015-Jul-29 02:34N 54°09' E 007°27'1010.0
2015-Jul-29 01:34N 54°18' E 007°19'1111.0
2015-Jul-29 00:34N 54°27' E 007°10'1110.6
2015-Jul-28 23:34N 54°38' E 007°06'1110.6
2015-Jul-28 22:34N 54°48' E 007°05'1110.7
2015-Jul-28 21:34N 54°59' E 007°04'1111.1
2015-Jul-28 20:33N 55°10' E 007°01'1111.1
2015-Jul-28 19:34N 55°21' E 007°02'1211.8
2015-Jul-28 18:34N 55°32' E 006°53'  
Track history (hours):
 
Tides and Currents Weather Stations Pressure Air Temp Water Temp Dewpoint Dewpoint Depression Visibility Wind Speed Wind Dir Waves Ship Positions

Spar Draco

Last reported at 2015-Aug-05 05:34 UTC. Time now 2015-Aug-05 06:24 UTC.
Position N 53°07' E 008°41'.

Length 190 m; draft 10.4 m.

Type: Cargo ship. MMSI: 257799000.

Date/timePositionNaut miles runAvg speedWind from/ knotsBaromVisibWave heightAir tempDewpointWater temp
2015-Aug-05 05:34N 53°07' E 008°41'0 0.0
2015-Aug-05 04:34N 53°07' E 008°41'0 0.0
2015-Aug-05 03:34N 53°07' E 008°41'0 0.0
2015-Aug-05 02:34N 53°07' E 008°41'0 0.0
2015-Aug-05 01:34N 53°07' E 008°41'0 0.0
2015-Aug-05 00:34N 53°07' E 008°41'0 0.0
2015-Aug-04 23:34N 53°07' E 008°41'0 0.0
2015-Aug-04 22:34N 53°07' E 008°41'0 0.0
2015-Aug-04 21:34N 53°07' E 008°41'0 0.0
2015-Aug-04 20:34N 53°07' E 008°41'0 0.0
2015-Aug-04 19:34N 53°07' E 008°41'0 0.0
2015-Aug-04 18:34N 53°07' E 008°41'0 0.0
2015-Aug-04 17:34N 53°07' E 008°41'0 0.0
2015-Aug-04 16:34N 53°07' E 008°41'0 0.0
2015-Aug-04 15:34N 53°07' E 008°41'0 0.0
2015-Aug-04 14:34N 53°07' E 008°41'0 0.0
2015-Aug-04 13:34N 53°07' E 008°41'0 0.0
2015-Aug-04 12:34N 53°07' E 008°41'0 0.0
2015-Aug-04 11:34N 53°07' E 008°41'0 0.0
2015-Aug-04 10:34N 53°07' E 008°41'0 0.0
2015-Aug-04 09:34N 53°07' E 008°41'0 0.0
2015-Aug-04 08:34N 53°07' E 008°41'0 0.0
2015-Aug-04 07:34N 53°07' E 008°41'0 0.0
2015-Aug-04 06:34N 53°07' E 008°41'0 0.0
2015-Aug-04 05:34N 53°07' E 008°41'0 0.0
2015-Aug-04 04:34N 53°07' E 008°41'4 4.5
2015-Aug-04 03:34N 53°10' E 008°36'8 8.4
2015-Aug-04 02:33N 53°18' E 008°29'1110.6
2015-Aug-04 01:33N 53°28' E 008°30'7 7.0
2015-Aug-04 00:34N 53°35' E 008°31'8 7.9
2015-Aug-03 23:34N 53°41' E 008°22'1211.8
2015-Aug-03 22:34N 53°49' E 008°07'1111.4
2015-Aug-03 21:34N 53°52' E 007°49'10 9.9
2015-Aug-03 20:33N 53°59' E 007°36'7 7.3
2015-Aug-03 19:34N 54°04' E 007°28'0 0.0
2015-Aug-03 18:34N 54°04' E 007°28'0 0.0
2015-Aug-03 17:34N 54°04' E 007°28'0 0.0
2015-Aug-03 16:33N 54°04' E 007°28'0 0.0
2015-Aug-03 15:33N 54°04' E 007°28'0 0.0
2015-Aug-03 14:33N 54°04' E 007°28'0 0.0
2015-Aug-03 13:33N 54°04' E 007°28'0 0.2
2015-Aug-03 12:33N 54°04' E 007°28'0 0.0
2015-Aug-03 11:33N 54°04' E 007°28'0 0.0
2015-Aug-03 10:33N 54°04' E 007°28'0 0.0
2015-Aug-03 09:33N 54°04' E 007°28'0 0.2
2015-Aug-03 08:33N 54°04' E 007°28'0 0.1
2015-Aug-03 07:33N 54°04' E 007°28'0 0.0
2015-Aug-03 06:33N 54°04' E 007°28'0 0.0
2015-Aug-03 05:34N 54°04' E 007°28'0 0.0
2015-Aug-03 04:33N 54°04' E 007°28'0 0.0
2015-Aug-03 03:33N 54°04' E 007°28'0 0.0
2015-Aug-03 02:33N 54°04' E 007°28'0 0.0
2015-Aug-03 01:33N 54°04' E 007°28'0 0.2
2015-Aug-03 00:34N 54°04' E 007°28'0 0.1
2015-Aug-02 23:34N 54°04' E 007°28'0 0.0
2015-Aug-02 22:34N 54°04' E 007°28'0 0.0
2015-Aug-02 21:33N 54°04' E 007°28'0 0.1
2015-Aug-02 20:33N 54°04' E 007°28'0 0.2
2015-Aug-02 19:33N 54°04' E 007°28'0 0.0
2015-Aug-02 18:33N 54°04' E 007°28'0 0.0
2015-Aug-02 17:34N 54°04' E 007°28'0 0.0
2015-Aug-02 16:34N 54°04' E 007°28'0 0.0
2015-Aug-02 15:34N 54°04' E 007°28'0 0.0
2015-Aug-02 14:34N 54°04' E 007°28'0 0.2
2015-Aug-02 13:33N 54°04' E 007°28'0 0.1
2015-Aug-02 12:33N 54°04' E 007°28'0 0.0
2015-Aug-02 11:33N 54°04' E 007°28'0 0.0
2015-Aug-02 10:34N 54°04' E 007°28'0 0.0
2015-Aug-02 09:33N 54°04' E 007°28'0 0.0
2015-Aug-02 08:33N 54°04' E 007°28'0 0.0
2015-Aug-02 07:34N 54°04' E 007°28'0 0.2
2015-Aug-02 06:33N 54°04' E 007°28'0 0.0
2015-Aug-02 05:33N 54°04' E 007°28'0 0.0
2015-Aug-02 04:33N 54°04' E 007°28'0 0.0
2015-Aug-02 03:34N 54°04' E 007°28'0 0.0
2015-Aug-02 02:33N 54°04' E 007°28'0 0.0
2015-Aug-02 01:33N 54°04' E 007°28'0 0.1
2015-Aug-02 00:33N 54°04' E 007°28'0 0.1
2015-Aug-01 23:34N 54°04' E 007°28'0 0.0
2015-Aug-01 22:34N 54°04' E 007°28'0 0.0
2015-Aug-01 21:34N 54°04' E 007°28'0 0.0
2015-Aug-01 20:34N 54°04' E 007°28'0 0.1
2015-Aug-01 19:34N 54°04' E 007°28'0 0.2
2015-Aug-01 18:33N 54°04' E 007°28'0 0.0
2015-Aug-01 17:34N 54°04' E 007°28'0 0.0
2015-Aug-01 16:33N 54°04' E 007°28'0 0.0
2015-Aug-01 15:33N 54°04' E 007°28'0 0.0
2015-Aug-01 14:33N 54°04' E 007°28'0 0.0
2015-Aug-01 13:34N 54°04' E 007°28'0 0.0
2015-Aug-01 12:33N 54°04' E 007°28'0 0.2
2015-Aug-01 11:33N 54°04' E 007°28'0 0.1
2015-Aug-01 10:33N 54°04' E 007°28'0 0.0
2015-Aug-01 09:34N 54°04' E 007°28'0 0.0
2015-Aug-01 08:33N 54°04' E 007°28'0 0.0
2015-Aug-01 07:34N 54°04' E 007°28'0 0.2
2015-Aug-01 06:34N 54°04' E 007°28'0 0.1
2015-Aug-01 05:31N 54°04' E 007°28'0 0.0
2015-Aug-01 04:34N 54°04' E 007°28'0 0.0
2015-Aug-01 03:33N 54°04' E 007°28'0 0.0
2015-Aug-01 02:34N 54°04' E 007°28'0 0.0
2015-Aug-01 01:33N 54°04' E 007°28'0 0.1
2015-Aug-01 00:33N 54°04' E 007°28'0 0.1
2015-Jul-31 23:34N 54°04' E 007°28'0 0.0
2015-Jul-31 22:34N 54°04' E 007°28'0 0.0
2015-Jul-31 21:34N 54°04' E 007°28'0 0.0
2015-Jul-31 20:34N 54°04' E 007°28'0 0.0
2015-Jul-31 19:33N 54°04' E 007°28'0 0.0
2015-Jul-31 18:33N 54°04' E 007°28'0 0.2
2015-Jul-31 17:33N 54°04' E 007°28'0 0.1
2015-Jul-31 16:34N 54°04' E 007°28'0 0.0
2015-Jul-31 15:33N 54°04' E 007°28'0 0.0
2015-Jul-31 14:34N 54°04' E 007°28'0 0.1
2015-Jul-31 13:34N 54°04' E 007°28'0 0.2
2015-Jul-31 12:34N 54°04' E 007°28'0 0.0
2015-Jul-31 11:34N 54°04' E 007°28'0 0.0
2015-Jul-31 10:33N 54°04' E 007°28'0 0.0
2015-Jul-31 09:33N 54°04' E 007°28'0 0.0
2015-Jul-31 08:33N 54°04' E 007°28'0 0.0
2015-Jul-31 07:33N 54°04' E 007°28'0 0.0
2015-Jul-31 06:33N 54°04' E 007°28'0 0.0
2015-Jul-31 05:33N 54°04' E 007°28'0 0.0
2015-Jul-31 04:33N 54°04' E 007°28'0 0.1
2015-Jul-31 03:34N 54°04' E 007°28'0 0.0
2015-Jul-31 02:33N 54°04' E 007°28'0 0.0
2015-Jul-31 01:34N 54°04' E 007°28'0 0.0
2015-Jul-31 00:34N 54°04' E 007°28'0 0.0
2015-Jul-30 23:34N 54°04' E 007°28'0 0.0
2015-Jul-30 22:34N 54°04' E 007°28'0 0.0
2015-Jul-30 21:33N 54°04' E 007°28'0 0.0
2015-Jul-30 20:34N 54°04' E 007°28'0 0.0
2015-Jul-30 19:33N 54°04' E 007°28'0 0.0
2015-Jul-30 18:33N 54°04' E 007°28'0 0.0
2015-Jul-30 17:33N 54°04' E 007°28'0 0.0
2015-Jul-30 16:33N 54°04' E 007°28'0 0.0
2015-Jul-30 15:34N 54°04' E 007°28'0 0.0
2015-Jul-30 14:34N 54°04' E 007°28'0 0.0
2015-Jul-30 13:33N 54°04' E 007°28'0 0.3
2015-Jul-30 12:34N 54°04' E 007°28'1 0.7
2015-Jul-30 11:33N 54°04' E 007°29'1 0.6
2015-Jul-30 10:33N 54°03' E 007°29'0 0.3
2015-Jul-30 09:34N 54°04' E 007°29'0 0.1
2015-Jul-30 08:33N 54°04' E 007°29'0 0.3
2015-Jul-30 07:33N 54°03' E 007°30'0 0.0
2015-Jul-30 06:33N 54°04' E 007°30'0 0.0
2015-Jul-30 05:33N 54°03' E 007°30'0 0.0
2015-Jul-30 04:33N 54°03' E 007°30'0 0.0
2015-Jul-30 03:34N 54°03' E 007°30'0 0.0
2015-Jul-30 02:34N 54°04' E 007°30'0 0.0
2015-Jul-30 01:34N 54°04' E 007°30'0 0.0
2015-Jul-30 00:34N 54°04' E 007°30'0 0.0
2015-Jul-29 23:33N 54°04' E 007°30'0 0.0
2015-Jul-29 22:34N 54°04' E 007°30'0 0.0
2015-Jul-29 21:34N 54°04' E 007°30'0 0.0
2015-Jul-29 20:33N 54°04' E 007°30'0 0.0
2015-Jul-29 19:33N 54°04' E 007°30'0 0.0
2015-Jul-29 18:34N 54°04' E 007°30'0 0.0
2015-Jul-29 17:33N 54°04' E 007°30'0 0.0
2015-Jul-29 16:33N 54°04' E 007°30'0 0.0
2015-Jul-29 15:34N 54°04' E 007°30'0 0.0
2015-Jul-29 14:34N 54°04' E 007°30'0 0.0
2015-Jul-29 13:34N 54°04' E 007°30'0 0.0
2015-Jul-29 12:33N 54°04' E 007°30'0 0.0
2015-Jul-29 11:33N 54°04' E 007°30'0 0.0
2015-Jul-29 10:33N 54°04' E 007°30'0 0.0
2015-Jul-29 09:34N 54°04' E 007°30'0 0.0
2015-Jul-29 08:33N 54°04' E 007°30'0 0.0
2015-Jul-29 07:33N 54°04' E 007°30'0 0.0
2015-Jul-29 06:34N 54°04' E 007°30'0 0.0
2015-Jul-29 05:34N 54°04' E 007°30'0 0.0
2015-Jul-29 04:33N 54°04' E 007°30'0 0.1
2015-Jul-29 03:34N 54°04' E 007°29'5 5.4
2015-Jul-29 02:34N 54°09' E 007°27'1010.0
2015-Jul-29 01:34N 54°18' E 007°19'1111.0
2015-Jul-29 00:34N 54°27' E 007°10'1110.6
2015-Jul-28 23:34N 54°38' E 007°06'1110.6
2015-Jul-28 22:34N 54°48' E 007°05'1110.7
2015-Jul-28 21:34N 54°59' E 007°04'1111.1
2015-Jul-28 20:33N 55°10' E 007°01'1111.1
2015-Jul-28 19:34N 55°21' E 007°02'1211.8
2015-Jul-28 18:34N 55°32' E 006°53'  

Dump ship's entire track history